createdAt,value
2022-10-07T00:01:12.033Z,15.77
2022-10-07T00:03:40.252Z,15.82
2022-10-07T00:06:12.608Z,16.17
2022-10-07T00:08:43.263Z,16.58
2022-10-07T00:11:17.778Z,15.60
2022-10-07T00:13:48.000Z,18.20
2022-10-07T00:16:21.880Z,15.98
2022-10-07T00:18:50.994Z,15.57
2022-10-07T00:21:20.541Z,15.93
2022-10-07T00:23:49.468Z,18.33
2022-10-07T00:26:23.781Z,17.45
2022-10-07T00:28:52.339Z,17.70
2022-10-07T00:31:25.843Z,18.25
2022-10-07T00:33:56.127Z,15.98
2022-10-07T00:36:27.151Z,16.10
2022-10-07T00:39:00.853Z,17.88
2022-10-07T00:41:38.152Z,17.33
2022-10-07T00:44:43.332Z,18.98
2022-10-07T00:47:12.922Z,17.27
2022-10-07T00:50:05.885Z,18.00
2022-10-07T00:52:37.643Z,17.02
2022-10-07T00:55:08.344Z,17.10
2022-10-07T00:57:37.984Z,18.98
2022-10-07T01:00:07.494Z,18.80
2022-10-07T01:02:38.173Z,18.20
2022-10-07T01:05:08.608Z,17.50
2022-10-07T01:07:37.603Z,17.65
2022-10-07T01:10:07.431Z,17.52
2022-10-07T01:12:40.981Z,19.02
2022-10-07T01:15:40.619Z,19.17
2022-10-07T01:18:26.753Z,18.88
2022-10-07T01:20:59.985Z,18.30
2022-10-07T01:23:54.062Z,19.98
2022-10-07T01:26:31.660Z,19.25
2022-10-07T01:29:04.632Z,19.67
2022-10-07T01:34:26.882Z,19.88
2022-10-07T01:36:57.545Z,21.40
2022-10-07T01:39:31.293Z,19.13
2022-10-07T01:41:59.718Z,20.58
2022-10-07T01:44:32.068Z,21.13
2022-10-07T01:47:00.382Z,19.52
2022-10-07T01:49:29.535Z,20.75
2022-10-07T01:52:24.939Z,20.25
2022-10-07T01:55:17.919Z,18.63
2022-10-07T01:58:22.349Z,21.05
2022-10-07T02:01:26.017Z,21.15
2022-10-07T02:04:14.180Z,21.58
2022-10-07T02:07:09.644Z,23.90
2022-10-07T02:09:46.889Z,22.75
2022-10-07T02:12:16.317Z,23.08
2022-10-07T02:15:04.497Z,22.05
2022-10-07T02:17:35.281Z,22.65
2022-10-07T02:20:04.774Z,21.58
2022-10-07T02:22:33.599Z,20.92
2022-10-07T02:25:02.240Z,21.73
2022-10-07T02:27:35.429Z,21.13
2022-10-07T02:30:08.247Z,21.50
2022-10-07T02:32:36.918Z,21.38
2022-10-07T02:35:13.293Z,21.15
2022-10-07T02:37:43.111Z,21.35
2022-10-07T02:40:12.737Z,21.92
2022-10-07T02:42:58.659Z,22.50
2022-10-07T02:45:39.298Z,20.92
2022-10-07T02:48:15.560Z,20.98
2022-10-07T02:50:47.400Z,21.85
2022-10-07T02:53:16.957Z,20.02
2022-10-07T02:55:48.549Z,20.10
2022-10-07T02:58:16.905Z,20.90
2022-10-07T03:00:48.276Z,20.73
2022-10-07T03:03:17.077Z,21.20
2022-10-07T03:05:53.245Z,20.08
2022-10-07T03:08:22.584Z,20.88
2022-10-07T03:10:52.264Z,21.77
2022-10-07T03:13:20.334Z,19.77
2022-10-07T03:15:53.202Z,20.48
2022-10-07T03:18:29.512Z,19.42
2022-10-07T03:21:12.924Z,20.23
2022-10-07T03:23:42.017Z,19.95
2022-10-07T03:26:11.843Z,21.20
2022-10-07T03:28:40.576Z,19.58
2022-10-07T03:31:10.511Z,20.00
2022-10-07T03:33:43.950Z,19.40
2022-10-07T03:36:13.144Z,18.88
2022-10-07T03:38:43.566Z,18.73
2022-10-07T03:41:13.181Z,19.50
2022-10-07T03:43:41.643Z,19.58
2022-10-07T03:46:11.468Z,22.23
2022-10-07T03:48:40.331Z,20.55
2022-10-07T03:51:09.608Z,21.48
2022-10-07T03:53:40.423Z,21.15
2022-10-07T03:56:09.106Z,19.38
2022-10-07T03:58:39.584Z,20.88
2022-10-07T04:01:12.269Z,20.27
2022-10-07T04:03:46.772Z,19.38
2022-10-07T04:06:15.383Z,20.00
2022-10-07T04:08:44.986Z,19.00
2022-10-07T04:11:14.320Z,21.55
2022-10-07T04:13:45.265Z,23.40
2022-10-07T04:16:13.858Z,22.02
2022-10-07T04:18:43.078Z,19.85
2022-10-07T04:21:11.521Z,21.08
2022-10-07T04:23:41.504Z,19.00
2022-10-07T04:26:11.655Z,19.65
2022-10-07T04:28:43.484Z,19.65
2022-10-07T04:31:14.934Z,19.05
2022-10-07T04:33:48.661Z,20.75
2022-10-07T04:36:22.322Z,20.27
2022-10-07T04:38:57.014Z,19.48
2022-10-07T04:41:29.499Z,19.30
2022-10-07T04:43:58.213Z,18.75
2022-10-07T04:46:30.036Z,19.33
2022-10-07T04:49:05.309Z,18.95
2022-10-07T04:51:33.485Z,18.55
2022-10-07T04:54:02.765Z,25.00
2022-10-07T04:56:37.494Z,19.80
2022-10-07T04:59:08.152Z,19.52
2022-10-07T05:01:37.791Z,21.38
2022-10-07T05:04:06.147Z,20.83
2022-10-07T05:06:35.378Z,19.55
2022-10-07T05:09:03.998Z,17.90
2022-10-07T05:11:35.623Z,18.25
2022-10-07T05:14:09.455Z,17.50
2022-10-07T05:16:38.092Z,19.30
2022-10-07T05:19:07.181Z,17.08
2022-10-07T05:21:34.924Z,18.25
2022-10-07T05:24:04.804Z,17.88
2022-10-07T05:26:37.331Z,17.60
2022-10-07T05:29:07.740Z,18.10
2022-10-07T05:31:44.227Z,18.85
2022-10-07T05:34:15.315Z,24.48
2022-10-07T05:36:44.556Z,25.73
2022-10-07T05:39:13.869Z,25.38
2022-10-07T05:41:55.961Z,24.77
2022-10-07T05:44:30.013Z,22.80
2022-10-07T05:46:59.559Z,19.17
2022-10-07T05:49:28.166Z,15.65
2022-10-07T05:51:56.986Z,12.85
2022-10-07T05:54:25.684Z,12.40
2022-10-07T05:56:55.248Z,13.80
2022-10-07T05:59:24.497Z,14.25
2022-10-07T06:02:00.385Z,14.18
2022-10-07T06:04:29.681Z,12.98
2022-10-07T06:06:58.078Z,11.70
2022-10-07T06:09:44.959Z,11.07
2022-10-07T06:12:36.973Z,11.60
2022-10-07T06:15:10.708Z,12.50
2022-10-07T06:17:44.438Z,12.23
2022-10-07T06:20:15.496Z,13.45
2022-10-07T06:22:44.568Z,13.00
2022-10-07T06:25:14.781Z,13.85
2022-10-07T06:27:45.092Z,13.90
2022-10-07T06:30:16.231Z,15.00
2022-10-07T06:32:45.272Z,15.27
2022-10-07T06:35:14.269Z,15.25
2022-10-07T06:37:43.111Z,14.35
2022-10-07T06:40:12.486Z,13.90
2022-10-07T06:42:41.142Z,15.13
2022-10-07T06:45:44.364Z,14.05
2022-10-07T06:48:14.734Z,15.45
2022-10-07T06:50:53.268Z,15.25
2022-10-07T06:53:22.669Z,14.77
2022-10-07T06:55:52.306Z,14.45
2022-10-07T06:58:22.611Z,13.75
2022-10-07T07:00:52.670Z,14.15
2022-10-07T07:03:24.357Z,14.25
2022-10-07T07:05:54.491Z,13.18
2022-10-07T07:08:32.551Z,11.68
2022-10-07T07:11:06.264Z,12.82
2022-10-07T07:13:36.456Z,10.80
2022-10-07T07:16:05.131Z,10.50
2022-10-07T07:18:35.154Z,10.68
2022-10-07T07:21:03.644Z,10.90
2022-10-07T07:23:34.100Z,9.82
2022-10-07T07:26:01.819Z,9.65
2022-10-07T07:28:31.610Z,9.13
2022-10-07T07:31:00.599Z,8.20
2022-10-07T07:33:29.528Z,10.15
2022-10-07T07:35:57.819Z,8.82
2022-10-07T07:38:26.120Z,9.02
2022-10-07T07:40:55.666Z,9.52
2022-10-07T07:43:24.013Z,8.27
2022-10-07T07:45:51.890Z,7.70
2022-10-07T07:48:19.974Z,7.70
2022-10-07T07:50:48.001Z,7.28
2022-10-07T07:53:16.550Z,7.15
2022-10-07T07:55:57.133Z,7.25
2022-10-07T07:58:26.737Z,7.22
2022-10-07T08:01:16.902Z,6.20
2022-10-07T08:03:47.629Z,6.30
2022-10-07T08:06:18.315Z,7.70
2022-10-07T08:08:47.642Z,7.88
2022-10-07T08:11:20.359Z,8.95
2022-10-07T08:13:51.754Z,7.68
2022-10-07T08:16:23.619Z,7.88
2022-10-07T08:18:55.554Z,6.57
2022-10-07T08:21:27.394Z,5.85
2022-10-07T08:24:00.792Z,5.93
2022-10-07T08:29:03.972Z,5.30
2022-10-07T08:31:33.606Z,5.70
2022-10-07T08:34:02.320Z,4.97
2022-10-07T08:36:32.994Z,5.32
2022-10-07T08:39:02.178Z,5.68
2022-10-07T08:41:56.859Z,4.40
2022-10-07T08:44:30.130Z,4.63
2022-10-07T08:46:58.255Z,4.82
2022-10-07T08:49:36.420Z,4.53
2022-10-07T08:52:30.394Z,4.15
2022-10-07T08:55:00.544Z,3.63
2022-10-07T08:57:42.875Z,3.58
2022-10-07T09:00:12.855Z,3.10
2022-10-07T09:03:05.872Z,2.90
2022-10-07T09:05:43.089Z,2.42
2022-10-07T09:08:15.995Z,2.30
2022-10-07T09:10:49.783Z,2.08
2022-10-07T09:13:23.537Z,2.05
2022-10-07T09:16:18.571Z,2.08
2022-10-07T09:18:51.110Z,1.98
2022-10-07T09:21:23.785Z,1.93
2022-10-07T09:24:13.376Z,2.00
2022-10-07T09:26:41.849Z,2.72
2022-10-07T09:29:10.842Z,2.42
2022-10-07T09:31:40.283Z,2.63
2022-10-07T09:34:20.190Z,2.13
2022-10-07T09:37:33.185Z,1.70
2022-10-07T09:40:21.662Z,1.83
2022-10-07T09:42:50.296Z,2.30
2022-10-07T09:45:33.111Z,2.03
2022-10-07T09:48:15.749Z,1.65
2022-10-07T09:50:44.817Z,1.60
2022-10-07T09:53:19.275Z,2.00
2022-10-07T09:55:48.062Z,1.50
2022-10-07T09:58:21.509Z,1.42
2022-10-07T10:00:52.308Z,1.23
2022-10-07T10:03:21.038Z,1.45
2022-10-07T10:06:00.408Z,1.40
2022-10-07T10:08:36.663Z,1.52
2022-10-07T10:11:28.180Z,1.30
2022-10-07T10:13:57.085Z,1.05
2022-10-07T10:16:25.459Z,1.05
2022-10-07T10:19:04.534Z,1.10
2022-10-07T10:21:36.071Z,1.05
2022-10-07T10:24:12.584Z,1.10
2022-10-07T10:27:04.002Z,1.60
2022-10-07T10:30:06.037Z,1.60
2022-10-07T10:32:57.428Z,1.92
2022-10-07T10:35:28.866Z,1.48
2022-10-07T10:38:03.305Z,1.52
2022-10-07T10:40:36.594Z,1.50
2022-10-07T10:43:20.654Z,1.40
2022-10-07T10:45:57.597Z,1.52
2022-10-07T10:48:29.334Z,1.50
2022-10-07T10:51:13.698Z,1.40
2022-10-07T10:53:52.014Z,1.40
2022-10-07T10:56:28.617Z,1.05
2022-10-07T10:59:15.098Z,1.20
2022-10-07T11:01:46.071Z,1.30
2022-10-07T11:04:25.698Z,1.40
2022-10-07T11:07:21.629Z,1.38
2022-10-07T11:09:55.650Z,1.33
2022-10-07T11:12:30.265Z,1.83
2022-10-07T11:15:06.951Z,1.35
2022-10-07T11:17:37.868Z,1.45
2022-10-07T11:20:18.719Z,1.60
2022-10-07T11:22:57.209Z,1.77
2022-10-07T11:25:32.258Z,1.30
2022-10-07T11:28:09.364Z,1.50
2022-10-07T11:30:49.802Z,1.70
2022-10-07T11:33:28.886Z,1.75
2022-10-07T11:36:14.498Z,1.63
2022-10-07T11:38:42.884Z,1.40
2022-10-07T11:41:34.134Z,1.73
2022-10-07T11:44:05.948Z,1.30
2022-10-07T11:46:41.004Z,1.65
2022-10-07T11:49:18.374Z,1.50
2022-10-07T11:51:55.257Z,1.67
2022-10-07T11:54:27.753Z,1.52
2022-10-07T11:57:00.641Z,1.27
2022-10-07T11:59:35.123Z,1.70
2022-10-07T12:02:03.859Z,2.00
2022-10-07T12:04:34.365Z,1.50
2022-10-07T12:07:33.454Z,2.05
2022-10-07T12:10:03.976Z,1.40
2022-10-07T12:12:50.365Z,1.50
2022-10-07T12:15:42.798Z,1.55
2022-10-07T12:18:18.087Z,1.45
2022-10-07T12:20:53.526Z,1.65
2022-10-07T12:23:22.345Z,1.40
2022-10-07T12:26:30.559Z,1.75
2022-10-07T12:28:58.887Z,1.70
2022-10-07T12:31:32.630Z,1.77
2022-10-07T12:34:07.844Z,1.70
2022-10-07T12:36:38.811Z,1.77
2022-10-07T12:39:12.463Z,1.70
2022-10-07T12:41:43.281Z,1.70
2022-10-07T12:44:37.061Z,1.80
2022-10-07T12:47:28.788Z,1.75
2022-10-07T12:50:03.664Z,2.63
2022-10-07T12:52:54.961Z,1.73
2022-10-07T12:55:37.346Z,2.00
2022-10-07T12:58:42.581Z,2.13
2022-10-07T13:01:48.419Z,2.13
2022-10-07T13:04:41.430Z,1.80
2022-10-07T13:07:30.968Z,1.85
2022-10-07T13:10:26.566Z,1.75
2022-10-07T13:12:56.586Z,1.60
2022-10-07T13:15:47.727Z,2.00
2022-10-07T13:18:23.241Z,1.90
2022-10-07T13:21:03.321Z,1.67
2022-10-07T13:23:32.458Z,1.75
2022-10-07T13:26:03.109Z,2.10
2022-10-07T13:28:45.798Z,2.13
2022-10-07T13:31:21.145Z,2.63
2022-10-07T13:33:50.204Z,2.03
2022-10-07T13:36:35.220Z,2.75
2022-10-07T13:39:23.249Z,2.17
2022-10-07T13:41:56.482Z,2.50
2022-10-07T13:44:27.126Z,2.15
2022-10-07T13:46:58.565Z,2.47
2022-10-07T13:49:30.613Z,2.20
2022-10-07T13:52:01.589Z,2.47
2022-10-07T13:54:31.782Z,2.28
2022-10-07T13:57:02.543Z,2.22
2022-10-07T13:59:36.956Z,2.00
2022-10-07T14:02:05.519Z,1.67
2022-10-07T14:04:34.334Z,1.80
2022-10-07T14:07:21.992Z,2.28
2022-10-07T14:10:08.977Z,1.85
2022-10-07T14:12:46.593Z,1.98
2022-10-07T14:15:19.955Z,2.53
2022-10-07T14:17:51.906Z,2.50
2022-10-07T14:20:25.581Z,2.78
2022-10-07T14:22:55.892Z,2.20
2022-10-07T14:25:29.342Z,2.35
2022-10-07T14:27:58.096Z,2.33
2022-10-07T14:30:59.978Z,2.45
2022-10-07T14:34:25.739Z,2.38
2022-10-07T14:37:15.961Z,2.63
2022-10-07T14:39:49.819Z,2.50
2022-10-07T14:42:22.319Z,2.60
2022-10-07T14:47:21.408Z,2.60
2022-10-07T14:49:49.571Z,2.38
2022-10-07T14:52:21.896Z,2.72
2022-10-07T14:54:51.589Z,2.42
2022-10-07T14:57:19.666Z,2.70
2022-10-07T14:59:50.586Z,2.58
2022-10-07T15:02:19.437Z,2.35
2022-10-07T15:04:48.029Z,2.95
2022-10-07T15:07:16.854Z,3.10
2022-10-07T15:09:47.230Z,3.13
2022-10-07T15:12:16.620Z,2.63
2022-10-07T15:14:44.502Z,2.80
2022-10-07T15:17:13.218Z,3.47
2022-10-07T15:19:42.011Z,2.95
2022-10-07T15:22:10.368Z,3.00
2022-10-07T15:24:39.023Z,3.22
2022-10-07T15:27:10.020Z,3.22
2022-10-07T15:29:38.349Z,3.47
2022-10-07T15:32:07.888Z,3.42
2022-10-07T15:34:36.689Z,3.63
2022-10-07T15:37:04.620Z,3.47
2022-10-07T15:39:37.447Z,4.00
2022-10-07T15:42:08.650Z,4.00
2022-10-07T15:44:37.074Z,4.28
2022-10-07T15:47:05.030Z,4.18
2022-10-07T15:49:33.337Z,4.45
2022-10-07T15:52:02.010Z,4.10
2022-10-07T15:54:30.860Z,4.00
2022-10-07T15:56:59.410Z,4.25
2022-10-07T15:59:27.561Z,4.10
2022-10-07T16:01:55.819Z,4.63
2022-10-07T16:04:24.320Z,4.85
2022-10-07T16:06:52.945Z,5.57
2022-10-07T16:09:22.678Z,5.50
2022-10-07T16:11:51.757Z,4.50
2022-10-07T16:14:19.866Z,4.47
2022-10-07T16:16:48.502Z,5.22
2022-10-07T16:19:16.406Z,5.22
2022-10-07T16:21:44.368Z,5.22
2022-10-07T16:24:18.358Z,5.82
2022-10-07T16:26:47.921Z,5.10
2022-10-07T16:29:36.540Z,5.40
2022-10-07T16:32:05.161Z,5.78
2022-10-07T16:34:33.541Z,6.03
2022-10-07T16:37:01.228Z,6.18
2022-10-07T16:39:29.266Z,6.32
2022-10-07T16:41:58.729Z,6.20
2022-10-07T16:44:28.229Z,6.15
2022-10-07T16:46:59.900Z,6.68
2022-10-07T16:49:29.452Z,7.85
2022-10-07T16:51:58.146Z,9.75
2022-10-07T16:54:30.026Z,8.52
2022-10-07T16:56:59.206Z,9.18
2022-10-07T16:59:27.962Z,8.13
2022-10-07T17:01:57.498Z,9.02
2022-10-07T17:04:26.234Z,7.18
2022-10-07T17:06:54.953Z,9.07
2022-10-07T17:09:25.073Z,8.07
2022-10-07T17:11:53.114Z,7.93
2022-10-07T17:14:22.409Z,8.65
2022-10-07T17:16:53.511Z,6.85
2022-10-07T17:19:24.944Z,7.40
2022-10-07T17:21:55.013Z,7.43
2022-10-07T17:24:24.666Z,6.88
2022-10-07T17:26:53.683Z,7.53
2022-10-07T17:29:26.641Z,7.03
2022-10-07T17:31:55.299Z,7.07
2022-10-07T17:34:24.861Z,6.65
2022-10-07T17:36:55.011Z,5.97
2022-10-07T17:39:25.282Z,6.15
2022-10-07T17:41:56.264Z,6.32
2022-10-07T17:44:27.436Z,6.30
2022-10-07T17:46:59.777Z,8.90
2022-10-07T17:49:28.874Z,6.72
2022-10-07T17:51:59.839Z,6.30
2022-10-07T17:54:29.794Z,6.22
2022-10-07T17:56:57.879Z,6.57
2022-10-07T17:59:27.204Z,6.30
2022-10-07T18:01:56.556Z,6.57
2022-10-07T18:04:25.458Z,5.35
2022-10-07T18:06:53.770Z,7.00
2022-10-07T18:09:23.471Z,6.38
2022-10-07T18:12:09.895Z,6.78
2022-10-07T18:14:56.981Z,6.38
2022-10-07T18:17:25.618Z,9.88
2022-10-07T18:19:55.317Z,12.45
2022-10-07T18:22:24.978Z,7.90
2022-10-07T18:24:57.631Z,8.55
2022-10-07T18:27:28.419Z,8.05
2022-10-07T18:29:57.294Z,9.32
2022-10-07T18:32:26.420Z,9.18
2022-10-07T18:34:54.447Z,9.93
2022-10-07T18:37:24.598Z,8.82
2022-10-07T18:39:54.330Z,7.97
2022-10-07T18:42:22.522Z,9.55
2022-10-07T18:44:50.914Z,8.27
2022-10-07T18:47:19.184Z,10.13
2022-10-07T18:49:47.817Z,8.85
2022-10-07T18:52:16.065Z,8.38
2022-10-07T18:54:44.003Z,10.02
2022-10-07T18:57:12.914Z,8.65
2022-10-07T18:59:40.716Z,8.40
2022-10-07T19:02:11.832Z,9.18
2022-10-07T19:04:40.563Z,7.30
2022-10-07T19:07:09.015Z,7.50
2022-10-07T19:09:38.080Z,6.43
2022-10-07T19:12:26.914Z,7.32
2022-10-07T19:14:54.710Z,6.53
2022-10-07T19:17:24.383Z,7.47
2022-10-07T19:19:53.115Z,7.28
2022-10-07T19:22:21.706Z,7.80
2022-10-07T19:25:09.641Z,8.13
2022-10-07T19:27:39.650Z,8.25
2022-10-07T19:30:08.407Z,8.10
2022-10-07T19:32:36.743Z,8.10
2022-10-07T19:35:06.532Z,8.25
2022-10-07T19:37:34.674Z,7.88
2022-10-07T19:40:03.673Z,8.95
2022-10-07T19:42:32.398Z,9.18
2022-10-07T19:45:01.213Z,8.60
2022-10-07T19:47:29.613Z,8.10
2022-10-07T19:49:57.376Z,9.20
2022-10-07T19:52:27.959Z,8.02
2022-10-07T19:54:56.386Z,8.13
2022-10-07T19:57:26.305Z,8.45
2022-10-07T19:59:55.840Z,9.50
2022-10-07T20:02:25.980Z,8.40
2022-10-07T20:04:54.205Z,9.50
2022-10-07T20:07:24.101Z,8.40
2022-10-07T20:09:53.109Z,7.40
2022-10-07T20:12:21.969Z,8.45
2022-10-07T20:14:50.480Z,8.30
2022-10-07T20:17:18.426Z,8.40
2022-10-07T20:19:46.952Z,8.75
2022-10-07T20:22:16.766Z,8.30
2022-10-07T20:24:45.250Z,8.13
2022-10-07T20:27:13.946Z,8.15
2022-10-07T20:30:00.112Z,8.15
2022-10-07T20:32:31.557Z,8.57
2022-10-07T20:35:00.257Z,8.93
2022-10-07T20:37:28.788Z,9.45
2022-10-07T20:40:15.910Z,9.60
2022-10-07T20:42:46.943Z,9.25
2022-10-07T20:45:16.516Z,10.02
2022-10-07T20:47:45.378Z,10.35
2022-10-07T20:50:14.704Z,11.52
2022-10-07T20:52:45.522Z,11.43
2022-10-07T20:55:14.548Z,11.27
2022-10-07T20:57:43.056Z,9.48
2022-10-07T21:00:16.695Z,10.35
2022-10-07T21:02:45.491Z,11.27
2022-10-07T21:05:14.143Z,11.95
2022-10-07T21:07:43.137Z,12.10
2022-10-07T21:10:10.953Z,11.68
2022-10-07T21:12:40.668Z,12.55
2022-10-07T21:15:09.273Z,10.52
2022-10-07T21:17:37.551Z,10.30
2022-10-07T21:20:06.419Z,10.05
2022-10-07T21:22:36.867Z,9.20
2022-10-07T21:25:05.455Z,10.43
2022-10-07T21:27:33.446Z,10.13
2022-10-07T21:30:01.825Z,9.57
2022-10-07T21:32:29.693Z,9.88
2022-10-07T21:34:57.992Z,9.90
2022-10-07T21:37:26.735Z,10.77
2022-10-07T21:39:54.684Z,9.25
2022-10-07T21:42:22.844Z,9.90
2022-10-07T21:44:51.125Z,10.18
2022-10-07T21:47:19.134Z,10.65
2022-10-07T21:49:47.205Z,11.50
2022-10-07T21:52:15.842Z,10.50
2022-10-07T21:54:43.624Z,10.38
2022-10-07T21:57:11.620Z,11.27
2022-10-07T21:59:39.597Z,11.75
2022-10-07T22:02:08.897Z,10.80
2022-10-07T22:04:37.544Z,11.55
2022-10-07T22:07:24.022Z,11.80
2022-10-07T22:09:51.778Z,12.13
2022-10-07T22:12:20.041Z,11.20
2022-10-07T22:14:47.934Z,11.73
2022-10-07T22:17:16.160Z,10.82
2022-10-07T22:19:44.413Z,11.35
2022-10-07T22:22:13.420Z,10.52
2022-10-07T22:24:41.172Z,10.32
2022-10-07T22:27:09.293Z,10.88
2022-10-07T22:29:38.515Z,10.38
2022-10-07T22:32:06.751Z,11.40
2022-10-07T22:34:53.433Z,11.45
2022-10-07T22:37:21.420Z,11.65
2022-10-07T22:39:49.817Z,10.73
2022-10-07T22:42:18.752Z,11.00
2022-10-07T22:44:47.182Z,10.88
2022-10-07T22:47:16.725Z,12.02
2022-10-07T22:49:44.598Z,11.75
2022-10-07T22:52:12.899Z,11.30
2022-10-07T22:54:40.893Z,11.43
2022-10-07T22:57:09.059Z,11.63
2022-10-07T22:59:38.878Z,11.57
2022-10-07T23:02:07.443Z,10.60
2022-10-07T23:04:35.316Z,11.13
2022-10-07T23:07:03.254Z,11.65
2022-10-07T23:09:31.730Z,11.70
2022-10-07T23:11:59.758Z,12.00
2022-10-07T23:14:27.666Z,11.93
2022-10-07T23:16:56.129Z,11.23
2022-10-07T23:19:23.878Z,10.57
2022-10-07T23:21:51.512Z,12.07
2022-10-07T23:24:20.178Z,11.65
2022-10-07T23:26:48.053Z,11.40
2022-10-07T23:29:16.446Z,11.23
2022-10-07T23:31:45.047Z,12.20
2022-10-07T23:34:14.116Z,11.45
2022-10-07T23:36:42.263Z,11.95
2022-10-07T23:39:10.713Z,13.52
2022-10-07T23:41:38.562Z,14.02
2022-10-07T23:44:06.593Z,14.20
2022-10-07T23:46:36.749Z,14.15
2022-10-07T23:49:05.264Z,14.55
2022-10-07T23:51:33.493Z,13.18
2022-10-07T23:54:04.676Z,13.13
2022-10-07T23:56:32.447Z,14.45
2022-10-07T23:59:01.779Z,14.40
